Time;durP1;ratioP1;P1;durP2;ratioP2;P2;SDS_P1;SDS_P2;PMS_P1;PMS_P2;Temp;Humidity;BMP_temperature;BMP_pressure;BME280_temperature;BME280_humidity;BME280_pressure;Samples;Min_cycle;Max_cycle;Signal;HPM_P1;HPM_P2
2022/01/28 00:02:14;;;;;;;48.93;21.37;;;1.70;99.90;;;;;;10286137;28;20078;-83
2022/01/28 00:07:14;;;;;;;41.50;21.13;;;1.70;99.90;;;;;;10269456;28;20458;-84
2022/01/28 00:12:15;;;;;;;48.90;23.17;;;1.70;99.90;;;;;;10281516;28;20045;-85
2022/01/28 00:39:06;;;;;;;36.27;16.57;;;1.90;99.90;;;;;;10285978;28;20058;-84
2022/01/28 00:44:29;;;;;;;37.50;18.17;;;1.90;99.90;;;;;;10263517;28;20031;-85
2022/01/28 00:49:30;;;;;;;39.43;16.03;;;1.90;99.90;;;;;;10269525;28;20038;-85
2022/01/28 00:54:30;;;;;;;33.60;16.43;;;1.90;99.90;;;;;;10257346;28;20471;-84
2022/01/28 00:59:31;;;;;;;40.03;18.90;;;2.00;99.90;;;;;;10220718;29;20130;-82
2022/01/28 01:04:31;;;;;;;35.67;18.77;;;2.00;99.90;;;;;;10234394;29;20042;-85
2022/01/28 01:15:36;;;;;;;34.07;17.37;;;2.00;99.90;;;;;;10266789;28;20046;-82
2022/01/28 01:26:40;;;;;;;26.67;12.73;;;2.00;99.90;;;;;;10276586;28;20049;-83
2022/01/28 01:31:43;;;;;;;27.00;14.03;;;2.10;99.90;;;;;;10272081;28;20023;-82
2022/01/28 01:36:45;;;;;;;26.37;13.07;;;2.10;99.90;;;;;;10268054;28;20042;-82
2022/01/28 01:41:53;;;;;;;23.10;12.43;;;2.20;99.90;;;;;;10275404;28;20039;-84
2022/01/28 01:52:31;;;;;;;22.27;10.37;;;2.20;99.90;;;;;;10279346;28;20047;-83
2022/01/28 01:57:32;;;;;;;17.00;9.13;;;2.30;99.90;;;;;;10284056;28;20035;-83
2022/01/28 02:02:33;;;;;;;17.13;8.50;;;2.30;99.90;;;;;;10285077;28;20542;-84
2022/01/28 02:07:34;;;;;;;13.80;6.90;;;2.40;99.90;;;;;;10285830;28;20031;-84
2022/01/28 02:12:44;;;;;;;13.70;6.80;;;2.40;99.90;;;;;;10281171;28;20118;-84
2022/01/28 02:17:46;;;;;;;13.57;7.10;;;2.50;99.90;;;;;;10290765;28;20050;-84
2022/01/28 02:22:46;;;;;;;10.27;5.20;;;2.60;99.90;;;;;;10274933;28;20030;-85
2022/01/28 02:27:47;;;;;;;8.33;4.27;;;2.50;99.90;;;;;;10292069;28;20045;-83
2022/01/28 02:32:49;;;;;;;11.23;5.20;;;2.50;99.90;;;;;;10274092;28;20027;-83
2022/01/28 02:37:50;;;;;;;12.57;5.80;;;2.50;99.90;;;;;;10292058;28;20039;-84
2022/01/28 02:43:02;;;;;;;7.50;3.27;;;2.50;99.90;;;;;;10290822;28;20471;-84
2022/01/28 02:48:08;;;;;;;5.23;2.73;;;2.50;99.90;;;;;;10291165;28;20060;-85
2022/01/28 02:53:19;;;;;;;11.02;5.13;;;2.60;99.90;;;;;;10292211;28;20034;-83
2022/01/28 02:58:23;;;;;;;9.63;3.60;;;2.60;99.90;;;;;;10290775;28;20057;-85
2022/01/28 03:03:24;;;;;;;15.73;5.23;;;2.60;99.90;;;;;;10289840;28;20074;-84
2022/01/28 03:08:28;;;;;;;11.67;4.23;;;2.50;99.90;;;;;;10290444;28;20034;-85
2022/01/28 03:23:49;;;;;;;10.50;4.00;;;2.40;99.90;;;;;;10290406;28;20038;-84
2022/01/28 03:28:50;;;;;;;8.13;3.17;;;2.40;99.90;;;;;;10271322;28;20027;-84
2022/01/28 03:33:51;;;;;;;5.90;2.60;;;2.50;99.90;;;;;;10289420;28;20035;-82
2022/01/28 03:38:51;;;;;;;5.90;2.73;;;2.40;99.90;;;;;;10289754;28;20074;-84
2022/01/28 03:43:58;;;;;;;8.10;3.40;;;2.50;99.90;;;;;;10289099;28;20058;-84
2022/01/28 03:48:59;;;;;;;14.23;5.70;;;2.50;99.90;;;;;;10289473;28;20034;-84
2022/01/28 03:53:59;;;;;;;9.07;3.50;;;2.50;99.90;;;;;;10288749;28;20084;-83
2022/01/28 03:59:00;;;;;;;7.40;3.93;;;2.60;99.90;;;;;;10287482;28;20059;-83
2022/01/28 04:04:40;;;;;;;8.20;4.40;;;2.50;99.90;;;;;;10288861;28;20034;-85
2022/01/28 04:14:58;;;;;;;6.10;2.43;;;2.20;99.90;;;;;;10287336;28;20681;-82
2022/01/28 04:19:59;;;;;;;12.63;6.10;;;2.10;99.90;;;;;;10270961;28;20533;-83
2022/01/28 04:24:59;;;;;;;14.50;4.97;;;1.90;99.90;;;;;;10286989;28;20059;-83
2022/01/28 04:30:01;;;;;;;14.43;6.00;;;1.80;99.90;;;;;;10288165;28;20057;-85
2022/01/28 04:35:01;;;;;;;14.13;5.97;;;1.70;99.90;;;;;;10286962;28;20031;-84
2022/01/28 04:40:28;;;;;;;29.43;9.80;;;1.60;99.90;;;;;;10286838;28;20038;-83
2022/01/28 04:46:31;;;;;;;25.50;9.33;;;1.50;99.90;;;;;;10286483;28;20046;-83
2022/01/28 05:01:13;;;;;;;30.50;9.97;;;1.40;99.90;;;;;;10296576;28;20517;-85
2022/01/28 05:31:56;;;;;;;15.10;5.33;;;1.20;99.90;;;;;;10291085;28;20043;-86
2022/01/28 05:36:57;;;;;;;19.23;8.80;;;1.20;99.90;;;;;;10294785;28;20105;-87
2022/01/28 05:41:57;;;;;;;19.87;9.03;;;1.30;99.90;;;;;;10294793;28;20522;-87
2022/01/28 05:47:02;;;;;;;14.20;6.73;;;1.20;99.90;;;;;;10294161;28;20659;-86
2022/01/28 05:52:03;;;;;;;18.97;7.07;;;1.20;99.90;;;;;;10294621;28;20031;-86
2022/01/28 05:57:04;;;;;;;23.00;10.20;;;1.20;99.90;;;;;;10276594;28;20038;-89
2022/01/28 06:02:05;;;;;;;22.03;9.33;;;1.20;99.90;;;;;;10293638;28;20439;-88
2022/01/28 06:07:06;;;;;;;17.27;5.37;;;1.30;99.90;;;;;;10293400;28;20034;-86
2022/01/28 06:12:07;;;;;;;18.27;8.07;;;1.20;99.90;;;;;;10275911;28;20086;-89
2022/01/28 06:17:07;;;;;;;26.30;10.87;;;1.30;99.90;;;;;;10293157;28;20038;-86
2022/01/28 06:22:08;;;;;;;25.33;11.23;;;1.30;99.90;;;;;;10292562;28;20452;-85
2022/01/28 06:27:09;;;;;;;22.70;9.33;;;1.30;99.90;;;;;;10293464;28;20538;-87
2022/01/28 06:32:11;;;;;;;37.67;15.80;;;1.40;99.90;;;;;;10275162;28;20380;-87
2022/01/28 06:37:11;;;;;;;31.53;14.83;;;1.40;99.90;;;;;;10291258;28;20125;-85
2022/01/28 06:42:13;;;;;;;26.03;11.73;;;1.50;99.90;;;;;;10292311;28;20108;-87
2022/01/28 06:47:13;;;;;;;41.53;13.83;;;1.50;99.90;;;;;;10291606;28;20479;-88
2022/01/28 06:52:14;;;;;;;33.20;12.37;;;1.60;99.90;;;;;;10285994;28;20041;-84
2022/01/28 06:57:14;;;;;;;32.00;12.97;;;1.70;99.90;;;;;;10267930;28;20047;-85
2022/01/28 07:02:15;;;;;;;40.90;14.20;;;1.70;99.90;;;;;;10270448;28;20042;-85
2022/01/28 07:07:16;;;;;;;33.37;12.63;;;1.70;99.90;;;;;;10280487;28;20024;-86
2022/01/28 07:12:17;;;;;;;39.33;15.67;;;1.80;99.90;;;;;;10290309;28;20037;-88
2022/01/28 07:17:18;;;;;;;29.83;12.60;;;1.90;99.90;;;;;;10267998;28;20181;-86
2022/01/28 07:22:18;;;;;;;44.37;20.57;;;1.90;99.90;;;;;;10261535;28;20116;-87
2022/01/28 07:27:20;;;;;;;40.83;13.00;;;2.00;99.90;;;;;;10266431;28;20043;-86
2022/01/28 07:32:23;;;;;;;25.53;8.77;;;2.00;99.90;;;;;;10266061;28;20058;-85
2022/01/28 07:37:23;;;;;;;36.70;12.73;;;2.10;99.90;;;;;;10289922;28;20034;-87
2022/01/28 07:42:25;;;;;;;33.43;11.20;;;2.20;99.90;;;;;;10289921;28;20663;-88
2022/01/28 07:47:26;;;;;;;26.70;9.67;;;2.10;99.90;;;;;;10287157;28;20039;-86
2022/01/28 07:52:27;;;;;;;20.00;7.50;;;2.20;99.90;;;;;;10289694;28;20034;-85
2022/01/28 07:57:29;;;;;;;57.57;19.43;;;2.20;99.90;;;;;;10288900;28;20089;-87
2022/01/28 08:02:30;;;;;;;25.63;8.70;;;2.20;99.90;;;;;;10271306;28;20046;-85
2022/01/28 08:07:31;;;;;;;29.10;10.03;;;2.20;99.90;;;;;;10289022;28;20505;-86
2022/01/28 08:12:31;;;;;;;29.27;10.13;;;2.20;99.90;;;;;;10288589;28;20030;-87
2022/01/28 08:17:32;;;;;;;29.20;10.00;;;2.20;99.90;;;;;;10270383;28;20089;-87
2022/01/28 08:22:38;;;;;;;33.77;12.83;;;2.20;99.90;;;;;;10276774;28;20041;-83
2022/01/28 08:27:41;;;;;;;;;;;2.10;99.90;;;;;;10271500;28;20387;-85
2022/01/28 08:32:42;;;;;;;29.40;8.63;;;2.10;99.90;;;;;;10288058;28;19910;-85
2022/01/28 08:37:44;;;;;;;27.37;11.57;;;2.10;99.90;;;;;;10287293;28;20049;-86
2022/01/28 08:42:44;;;;;;;31.53;9.37;;;2.10;99.90;;;;;;10288001;28;20022;-85
2022/01/28 08:47:45;;;;;;;20.33;7.80;;;2.20;99.90;;;;;;10287195;28;20475;-84
2022/01/28 08:52:46;;;;;;;30.17;8.47;;;2.20;99.90;;;;;;10270173;28;20011;-85
2022/01/28 08:57:47;;;;;;;33.97;10.17;;;2.20;99.90;;;;;;10279064;28;20670;-87
2022/01/28 09:02:49;;;;;;;22.13;8.70;;;2.10;99.90;;;;;;10285742;28;20149;-84
2022/01/28 09:07:50;;;;;;;17.53;7.60;;;2.10;99.90;;;;;;10269665;28;20031;-84
2022/01/28 09:18:04;;;;;;;27.30;10.03;;;2.00;99.90;;;;;;10285753;28;20054;-87
2022/01/28 09:23:06;;;;;;;31.97;10.97;;;2.00;99.90;;;;;;10284487;28;20065;-85
2022/01/28 09:28:07;;;;;;;38.00;12.03;;;1.90;99.90;;;;;;10287028;28;20070;-86
2022/01/28 09:33:10;;;;;;;25.77;10.20;;;1.90;99.90;;;;;;10286418;28;20038;-86
2022/01/28 09:38:11;;;;;;;31.57;11.27;;;1.90;99.90;;;;;;10285972;28;20175;-88
2022/01/28 09:43:13;;;;;;;36.67;11.33;;;1.90;99.90;;;;;;10285868;28;20042;-85
2022/01/28 09:48:13;;;;;;;37.37;9.30;;;1.90;99.90;;;;;;10281274;28;20438;-86
2022/01/28 09:53:15;;;;;;;41.17;13.53;;;2.00;99.90;;;;;;10277582;28;20038;-86
2022/01/28 09:58:16;;;;;;;26.17;9.57;;;2.00;99.90;;;;;;10253039;28;20061;-85
2022/01/28 10:03:19;;;;;;;22.30;8.10;;;2.00;99.90;;;;;;10264565;28;20333;-84
2022/01/28 10:08:27;;;;;;;23.63;8.17;;;2.00;99.90;;;;;;10285754;28;20446;-85
2022/01/28 10:13:37;;;;;;;36.07;13.83;;;2.10;99.90;;;;;;10286803;28;20026;-85
2022/01/28 10:18:42;;;;;;;35.73;11.43;;;2.10;99.90;;;;;;10292063;28;20050;-85
2022/01/28 10:23:54;;;;;;;26.23;10.83;;;2.20;99.90;;;;;;10275971;28;20035;-83
2022/01/28 10:28:54;;;;;;;26.90;10.13;;;2.20;99.90;;;;;;10292565;28;20522;-85
2022/01/28 10:34:09;;;;;;;28.83;10.73;;;2.20;99.90;;;;;;10291784;28;20038;-88
2022/01/28 10:39:15;;;;;;;29.33;10.50;;;2.10;99.90;;;;;;10274616;28;20565;-85
2022/01/28 10:44:16;;;;;;;18.75;7.75;;;2.10;99.90;;;;;;10274657;28;20125;-87
2022/01/28 10:49:16;;;;;;;24.00;10.40;;;2.10;99.90;;;;;;10274763;28;20029;-85
2022/01/28 10:54:20;;;;;;;34.77;15.37;;;2.00;99.90;;;;;;10291185;28;20027;-85
2022/01/28 10:59:47;;;;;;;25.73;10.27;;;1.90;99.90;;;;;;10291538;28;20059;-86
2022/01/28 11:05:18;;;;;;;24.43;9.10;;;1.90;99.90;;;;;;10281951;28;20039;-86
2022/01/28 11:10:19;;;;;;;30.90;12.40;;;1.90;99.90;;;;;;10250426;28;20395;-88
2022/01/28 11:16:02;;;;;;;20.70;9.03;;;1.90;99.90;;;;;;10271117;28;20023;-85
2022/01/28 11:21:10;;;;;;;22.00;8.20;;;1.90;99.90;;;;;;10271573;28;20058;-86
2022/01/28 11:26:35;;;;;;;21.33;8.40;;;2.00;99.90;;;;;;10271645;28;20122;-86
2022/01/28 11:32:27;;;;;;;24.93;7.40;;;2.00;99.90;;;;;;10265585;28;20093;-86
2022/01/28 11:37:34;;;;;;;18.43;5.83;;;2.10;99.90;;;;;;10266042;28;20038;-86
2022/01/28 11:42:39;;;;;;;19.03;7.20;;;2.10;99.90;;;;;;10276613;28;20098;-89
2022/01/28 11:53:22;;;;;;;17.60;6.93;;;2.10;99.90;;;;;;10230854;28;20121;-86
2022/01/28 11:58:57;;;;;;;18.90;7.77;;;2.10;99.90;;;;;;10288807;28;20171;-86
2022/01/28 12:04:26;;;;;;;23.43;6.97;;;2.10;99.90;;;;;;10245806;29;20122;-87
2022/01/28 12:09:53;;;;;;;15.83;5.30;;;2.20;99.90;;;;;;10226257;28;20727;-88
2022/01/28 12:15:03;;;;;;;21.57;7.80;;;2.20;99.90;;;;;;10230327;29;20042;-87
2022/01/28 12:20:59;;;;;;;14.37;6.10;;;2.20;99.90;;;;;;10230283;29;20688;-86
2022/01/28 12:26:00;;;;;;;17.02;5.53;;;2.20;99.90;;;;;;10221850;29;20027;-88
2022/01/28 12:37:23;;;;;;;18.57;6.53;;;2.00;99.90;;;;;;10231311;28;20043;-86
2022/01/28 12:42:38;;;;;;;18.87;7.83;;;2.10;99.90;;;;;;10230074;29;20034;-88
2022/01/28 12:47:39;;;;;;;16.63;6.23;;;2.20;99.90;;;;;;10224534;29;20031;-86
2022/01/28 12:52:39;;;;;;;21.83;7.80;;;2.30;99.90;;;;;;10246355;29;20271;-88
2022/01/28 12:57:47;;;;;;;26.87;8.50;;;2.30;99.90;;;;;;10246782;29;20054;-88
2022/01/28 13:03:36;;;;;;;25.50;9.43;;;2.40;99.90;;;;;;10260889;28;20130;-86
2022/01/28 13:08:41;;;;;;;18.33;7.83;;;2.40;99.90;;;;;;10120761;29;20044;-86
2022/01/28 13:13:56;;;;;;;24.43;7.57;;;2.40;99.90;;;;;;10107045;29;20044;-88
2022/01/28 13:18:58;;;;;;;22.00;7.63;;;2.40;99.90;;;;;;10204870;28;20042;-86
2022/01/28 13:24:16;;;;;;;17.63;6.90;;;2.40;99.90;;;;;;10283012;28;20035;-86
2022/01/28 13:29:17;;;;;;;22.40;7.73;;;2.40;99.90;;;;;;10284177;28;20039;-86
2022/01/28 13:34:18;;;;;;;24.07;8.57;;;2.40;99.90;;;;;;10286062;28;20620;-90
2022/01/28 13:39:25;;;;;;;20.33;6.97;;;2.40;99.90;;;;;;10267709;28;20043;-89
2022/01/28 13:44:27;;;;;;;22.67;7.37;;;2.40;99.90;;;;;;10268291;28;20061;-88
2022/01/28 13:49:35;;;;;;;25.47;7.67;;;2.40;99.90;;;;;;10290075;28;20050;-89
2022/01/28 13:54:36;;;;;;;25.83;8.37;;;2.40;99.90;;;;;;10256520;28;20055;-93
2022/01/28 13:59:42;;;;;;;29.57;9.13;;;2.40;99.90;;;;;;10286067;28;20454;-90
2022/01/28 14:04:45;;;;;;;25.80;8.20;;;2.50;99.90;;;;;;10275907;28;20044;-87
2022/01/28 14:09:58;;;;;;;22.40;8.43;;;2.50;99.90;;;;;;10292699;28;20114;-89
2022/01/28 14:15:10;;;;;;;21.37;7.60;;;2.40;99.90;;;;;;10275930;28;20125;-89
2022/01/28 14:20:11;;;;;;;27.07;9.07;;;2.40;99.90;;;;;;10262463;28;20065;-88
2022/01/28 14:25:11;;;;;;;32.07;10.63;;;2.40;99.90;;;;;;10275239;28;20064;-89
2022/01/28 14:35:20;;;;;;;27.57;9.03;;;2.40;99.90;;;;;;10291705;28;20134;-87
2022/01/28 14:40:21;;;;;;;26.23;7.63;;;2.40;99.90;;;;;;10285922;28;20058;-86
2022/01/28 14:45:21;;;;;;;30.93;11.10;;;2.30;99.90;;;;;;10287940;28;20423;-87
2022/01/28 14:50:22;;;;;;;23.93;9.13;;;2.30;99.90;;;;;;10296793;28;20019;-87
2022/01/28 14:55:22;;;;;;;20.37;7.53;;;2.30;99.90;;;;;;10274104;28;20058;-87
2022/01/28 15:00:23;;;;;;;26.80;7.17;;;2.30;99.90;;;;;;10270668;28;20039;-88
2022/01/28 15:05:24;;;;;;;18.27;5.93;;;2.40;99.90;;;;;;10269397;28;20810;-87
2022/01/28 15:10:31;;;;;;;34.77;8.23;;;2.30;99.90;;;;;;10272179;28;20027;-86
2022/01/28 15:15:31;;;;;;;24.03;7.07;;;2.30;99.90;;;;;;10290435;28;20042;-86
2022/01/28 15:20:34;;;;;;;27.23;6.80;;;2.30;99.90;;;;;;10287776;28;20031;-89
2022/01/28 15:25:46;;;;;;;25.30;7.43;;;2.20;99.90;;;;;;10277418;28;20027;-91
2022/01/28 15:36:06;;;;;;;16.87;6.17;;;2.20;99.90;;;;;;10278427;28;20054;-86
2022/01/28 15:46:28;;;;;;;21.93;8.20;;;2.10;99.90;;;;;;10288553;28;20050;-87
2022/01/28 15:51:28;;;;;;;26.03;9.23;;;2.00;99.90;;;;;;10284871;28;20514;-88
2022/01/28 15:56:29;;;;;;;29.57;9.37;;;1.90;99.90;;;;;;10270710;28;20042;-87
2022/01/28 16:07:37;;;;;;;26.33;8.80;;;2.00;99.90;;;;;;10250216;28;20042;-85
2022/01/28 16:17:39;;;;;;;20.37;8.47;;;2.00;99.90;;;;;;10283573;28;20061;-85
2022/01/28 16:22:40;;;;;;;26.93;8.97;;;1.90;99.90;;;;;;10254734;28;20050;-85
2022/01/28 16:28:36;;;;;;;35.63;10.07;;;1.90;99.90;;;;;;10268526;28;20089;-89
2022/01/28 16:39:17;;;;;;;34.47;10.57;;;1.80;99.90;;;;;;10271451;28;20286;-88
2022/01/28 16:44:28;;;;;;;30.20;11.07;;;1.70;99.90;;;;;;10269943;28;20110;-86
2022/01/28 16:49:29;;;;;;;26.07;9.23;;;1.60;99.90;;;;;;10266704;28;20031;-86
2022/01/28 16:54:34;;;;;;;28.47;9.13;;;1.70;99.90;;;;;;10285641;28;20483;-87
2022/01/28 16:59:43;;;;;;;;;;;1.60;99.90;;;;;;10258350;28;20082;-87
2022/01/28 17:05:08;;;;;;;29.10;11.10;;;1.60;99.90;;;;;;10264526;28;19914;-89
2022/01/28 17:10:35;;;;;;;23.37;10.03;;;1.60;99.90;;;;;;10276179;28;20046;-88
2022/01/28 17:15:37;;;;;;;28.15;9.57;;;1.70;99.90;;;;;;10255896;28;20058;-86
2022/01/28 17:20:38;;;;;;;34.40;11.40;;;1.70;99.90;;;;;;10262621;28;20037;-86
2022/01/28 17:25:39;;;;;;;24.27;9.33;;;1.70;99.90;;;;;;10278544;28;20151;-90
2022/01/28 17:30:40;;;;;;;26.03;8.70;;;1.80;99.90;;;;;;10305297;28;20082;-88
2022/01/28 17:35:40;;;;;;;43.00;15.17;;;1.80;99.90;;;;;;10297817;28;20042;-88
2022/01/28 17:40:41;;;;;;;37.37;12.73;;;1.80;99.90;;;;;;10297733;28;20541;-90
2022/01/28 17:45:42;;;;;;;34.63;13.77;;;1.80;99.90;;;;;;10280027;28;20034;-87
2022/01/28 17:50:42;;;;;;;30.77;12.57;;;1.80;99.90;;;;;;10282085;28;20482;-87
2022/01/28 17:56:02;;;;;;;32.90;13.07;;;1.80;99.90;;;;;;10292992;28;20074;-87
2022/01/28 18:01:37;;;;;;;27.80;9.43;;;1.80;99.90;;;;;;10274230;28;20093;-86
2022/01/28 18:07:33;;;;;;;27.80;9.00;;;1.70;99.90;;;;;;10087107;29;20045;-89
2022/01/28 18:13:13;;;;;;;21.93;9.83;;;1.60;99.90;;;;;;10101817;29;20088;-87
2022/01/28 18:18:14;;;;;;;28.23;10.70;;;1.60;99.90;;;;;;10165148;28;20178;-89
2022/01/28 18:23:15;;;;;;;25.07;9.87;;;1.60;99.90;;;;;;10190948;28;20574;-86
2022/01/28 18:28:16;;;;;;;26.33;9.50;;;1.50;99.90;;;;;;10198172;29;20600;-88
2022/01/28 18:39:15;;;;;;;33.20;14.13;;;1.50;99.90;;;;;;10274621;28;20047;-87
2022/01/28 18:44:18;;;;;;;17.37;7.00;;;1.40;99.90;;;;;;10285222;28;20367;-87
2022/01/28 18:49:47;;;;;;;23.37;7.70;;;1.40;99.90;;;;;;10287486;28;20033;-90
2022/01/28 18:54:48;;;;;;;19.10;7.13;;;1.40;99.90;;;;;;10284726;28;20122;-88
2022/01/28 18:59:48;;;;;;;10.97;3.93;;;1.30;99.90;;;;;;10272617;28;20758;-88
2022/01/28 19:04:50;;;;;;;13.57;6.53;;;0.90;99.90;;;;;;10264572;28;20031;-89
2022/01/28 19:09:51;;;;;;;22.30;9.13;;;0.70;99.90;;;;;;10277204;28;20019;-86
2022/01/28 19:14:52;;;;;;;17.87;7.23;;;0.60;99.90;;;;;;10276042;28;20039;-88
2022/01/28 19:19:53;;;;;;;13.60;4.97;;;0.60;99.90;;;;;;10272332;28;20046;-89
2022/01/28 19:24:54;;;;;;;15.77;4.97;;;0.50;99.90;;;;;;10273332;28;20490;-86
2022/01/28 19:29:55;;;;;;;9.67;4.90;;;0.50;99.90;;;;;;10283648;28;20143;-86
2022/01/28 19:34:56;;;;;;;10.67;4.40;;;0.50;99.90;;;;;;10288354;28;20123;-87
2022/01/28 19:39:56;;;;;;;8.97;3.60;;;0.50;99.90;;;;;;10286739;28;20047;-86
2022/01/28 19:44:57;;;;;;;15.57;5.03;;;0.50;99.90;;;;;;10271616;28;20062;-85
2022/01/28 19:49:59;;;;;;;11.33;4.40;;;0.40;99.90;;;;;;10286229;28;20054;-86
2022/01/28 19:55:00;;;;;;;12.30;4.40;;;0.40;99.90;;;;;;10271309;28;20053;-87
2022/01/28 20:00:02;;;;;;;19.53;7.40;;;0.40;99.90;;;;;;10265045;28;20043;-86
2022/01/28 20:05:03;;;;;;;16.17;6.03;;;0.40;99.90;;;;;;10264034;28;20034;-85
2022/01/28 20:16:19;;;;;;;10.63;4.40;;;0.30;99.90;;;;;;10242678;28;20098;-87
2022/01/28 20:21:19;;;;;;;12.27;3.55;;;0.30;99.90;;;;;;10269791;28;20511;-87
2022/01/28 20:26:21;;;;;;;18.83;5.60;;;0.30;99.90;;;;;;10268384;28;20130;-89
2022/01/28 20:31:22;;;;;;;24.00;7.33;;;0.40;99.90;;;;;;10267996;28;20122;-84
2022/01/28 20:36:22;;;;;;;18.40;7.53;;;0.30;99.90;;;;;;10280398;28;20401;-87
2022/01/28 20:41:25;;;;;;;22.17;8.70;;;0.30;99.90;;;;;;10284644;28;20041;-85
2022/01/28 20:46:29;;;;;;;18.67;8.27;;;0.30;99.90;;;;;;10281761;28;20021;-87
2022/01/28 20:51:29;;;;;;;22.57;9.27;;;0.30;99.90;;;;;;10263016;28;20122;-86
2022/01/28 20:56:33;;;;;;;20.63;9.30;;;0.40;99.90;;;;;;10264808;28;20031;-86
2022/01/28 21:02:52;;;;;;;19.03;7.60;;;0.40;99.90;;;;;;10266296;28;20043;-85
2022/01/28 21:07:47;;;;;;;18.83;7.13;;;0.40;99.90;;;;;;10232428;28;20105;-85
2022/01/28 21:12:48;;;;;;;16.83;6.33;;;0.40;99.90;;;;;;10256529;28;20038;-86
2022/01/28 21:17:50;;;;;;;16.00;6.53;;;0.40;99.90;;;;;;10264518;28;20422;-85
2022/01/28 21:22:53;;;;;;;17.03;6.27;;;0.30;99.90;;;;;;10263154;28;20455;-85
2022/01/28 21:27:53;;;;;;;21.50;7.07;;;0.30;99.90;;;;;;10284795;28;20070;-86
2022/01/28 21:32:54;;;;;;;17.87;6.77;;;0.30;99.90;;;;;;10285152;28;20121;-85
2022/01/28 21:37:55;;;;;;;16.47;6.97;;;0.30;99.90;;;;;;10275864;28;20047;-87
2022/01/28 21:42:55;;;;;;;16.00;6.13;;;0.40;99.90;;;;;;10276440;28;20038;-85
2022/01/28 21:53:58;;;;;;;19.97;6.47;;;0.40;99.90;;;;;;10139263;28;20034;-85
2022/01/28 21:58:58;;;;;;;19.00;6.70;;;0.40;99.90;;;;;;10253240;28;20042;-85
2022/01/28 22:03:59;;;;;;;18.50;6.30;;;0.40;99.90;;;;;;10265268;28;20043;-85
2022/01/28 22:09:00;;;;;;;17.17;6.77;;;0.50;99.90;;;;;;10272013;28;20045;-87
2022/01/28 22:14:00;;;;;;;16.47;6.23;;;0.50;99.90;;;;;;10270682;28;20074;-85
2022/01/28 22:19:01;;;;;;;11.80;5.70;;;0.50;99.90;;;;;;10267737;28;20043;-87
2022/01/28 22:24:02;;;;;;;12.13;4.63;;;0.50;99.90;;;;;;10285536;28;20030;-84
2022/01/28 22:29:03;;;;;;;12.03;5.07;;;0.50;99.90;;;;;;10284517;28;20389;-84
2022/01/28 22:34:03;;;;;;;14.53;5.33;;;0.50;99.90;;;;;;10284367;28;20069;-83
2022/01/28 22:39:05;;;;;;;15.00;5.77;;;0.50;99.90;;;;;;10291808;28;20046;-83
2022/01/28 22:44:05;;;;;;;18.87;6.77;;;0.50;99.90;;;;;;10291215;28;20023;-83
2022/01/28 22:49:06;;;;;;;16.87;5.50;;;0.50;99.90;;;;;;10291654;28;20510;-84
2022/01/28 22:54:07;;;;;;;19.33;6.47;;;0.50;99.90;;;;;;10274482;28;20038;-85
2022/01/28 22:59:08;;;;;;;15.43;6.37;;;0.50;99.90;;;;;;10290878;28;20114;-84
2022/01/28 23:04:08;;;;;;;18.47;6.30;;;0.50;99.90;;;;;;10291780;28;20093;-84
2022/01/28 23:09:09;;;;;;;13.47;5.67;;;0.40;99.90;;;;;;10290427;28;20391;-83
2022/01/28 23:14:10;;;;;;;10.03;4.93;;;0.50;99.90;;;;;;10290643;28;20078;-83
2022/01/28 23:19:11;;;;;;;10.67;4.90;;;0.40;99.90;;;;;;10290039;28;20054;-84
2022/01/28 23:24:11;;;;;;;13.80;5.50;;;0.40;99.90;;;;;;10289438;28;20451;-84
2022/01/28 23:29:12;;;;;;;12.10;4.23;;;0.40;99.90;;;;;;10290378;28;20597;-84
2022/01/28 23:34:13;;;;;;;11.00;4.17;;;0.40;99.90;;;;;;10289130;28;20046;-85
2022/01/28 23:39:13;;;;;;;10.43;4.10;;;0.40;99.90;;;;;;10290118;28;20046;-84
2022/01/28 23:44:14;;;;;;;27.00;9.27;;;0.30;99.90;;;;;;10290181;28;20093;-84
2022/01/28 23:49:15;;;;;;;40.13;13.60;;;0.30;99.90;;;;;;10289530;28;20089;-84
2022/01/28 23:54:15;;;;;;;15.13;5.40;;;0.20;99.90;;;;;;10271350;28;20394;-84
2022/01/28 23:59:16;;;;;;;17.33;6.50;;;0.10;99.90;;;;;;10288991;28;20039;-85
